Time;durP1;ratioP1;P1;durP2;ratioP2;P2;SDS_P1;SDS_P2;PMS_P1;PMS_P2;Temp;Humidity;BMP_temperature;BMP_pressure;BME280_temperature;BME280_humidity;BME280_pressure;Samples;Min_cycle;Max_cycle;Signal;HPM_P1;HPM_P2
2020/12/17 00:02:04;;;;;;;30.75;11.52;;;4.20;99.90;;;;;;4970873;28;20034;-73
2020/12/17 00:04:30;;;;;;;28.15;10.77;;;4.20;99.90;;;;;;4972601;28;20027;-72
2020/12/17 00:06:56;;;;;;;32.28;11.82;;;4.10;99.90;;;;;;4968509;28;20034;-74
2020/12/17 00:09:22;;;;;;;28.17;10.93;;;4.10;99.90;;;;;;4972046;28;20374;-73
2020/12/17 00:11:48;;;;;;;30.55;11.32;;;4.00;99.90;;;;;;4969504;28;20035;-73
2020/12/17 00:14:15;;;;;;;29.73;11.95;;;4.00;99.90;;;;;;4973080;28;20038;-73
2020/12/17 00:16:41;;;;;;;29.50;10.77;;;4.00;99.90;;;;;;4969212;28;20042;-73
2020/12/17 00:19:08;;;;;;;32.58;11.32;;;4.00;99.90;;;;;;4955430;28;20032;-73
2020/12/17 00:21:36;;;;;;;31.90;11.60;;;4.00;99.90;;;;;;4967048;28;20142;-73
2020/12/17 00:24:02;;;;;;;30.08;10.90;;;4.00;99.90;;;;;;4996182;23;20038;-75
2020/12/17 00:26:27;;;;;;;29.92;10.68;;;4.10;99.90;;;;;;4972416;28;20057;-75
2020/12/17 00:28:53;;;;;;;32.10;11.43;;;4.00;99.90;;;;;;4986303;28;20551;-75
2020/12/17 00:31:19;;;;;;;30.58;10.95;;;4.00;99.90;;;;;;4972408;28;20089;-76
2020/12/17 00:33:47;;;;;;;31.05;11.82;;;4.00;99.90;;;;;;4982767;28;20046;-77
2020/12/17 00:36:23;;;;;;;32.58;11.35;;;4.00;99.90;;;;;;4972559;28;20039;-75
2020/12/17 00:38:49;;;;;;;33.25;11.65;;;4.00;99.90;;;;;;4960945;28;20540;-75
2020/12/17 00:41:16;;;;;;;25.88;10.27;;;4.00;99.90;;;;;;4967207;28;20031;-76
2020/12/17 00:43:43;;;;;;;30.50;10.75;;;4.00;99.90;;;;;;4974066;28;20039;-75
2020/12/17 00:46:12;;;;;;;34.13;11.48;;;3.90;99.90;;;;;;4968612;28;20038;-77
2020/12/17 00:48:38;;;;;;;32.50;11.52;;;3.90;99.90;;;;;;4962980;28;20030;-75
2020/12/17 00:51:04;;;;;;;34.75;12.68;;;3.90;99.90;;;;;;4972668;28;20071;-77
2020/12/17 00:53:30;;;;;;;31.85;10.93;;;3.90;99.90;;;;;;4973959;28;20105;-74
2020/12/17 00:55:56;;;;;;;32.25;11.93;;;3.90;99.90;;;;;;4970580;28;20038;-76
2020/12/17 00:58:21;;;;;;;38.33;11.60;;;3.90;99.90;;;;;;4942190;29;20042;-74
2020/12/17 01:00:47;;;;;;;36.50;12.55;;;3.80;99.90;;;;;;4946836;28;20030;-76
2020/12/17 01:03:13;;;;;;;37.25;11.90;;;3.80;99.90;;;;;;4956233;28;20043;-75
2020/12/17 01:05:39;;;;;;;39.25;13.48;;;3.90;99.90;;;;;;4943289;28;20093;-76
2020/12/17 01:08:04;;;;;;;34.53;12.13;;;3.90;99.90;;;;;;4972423;28;20059;-74
2020/12/17 01:10:30;;;;;;;32.88;12.07;;;3.90;99.90;;;;;;4972707;28;20086;-76
2020/12/17 01:12:56;;;;;;;39.97;12.57;;;4.00;99.90;;;;;;4972456;28;20045;-76
2020/12/17 01:15:22;;;;;;;42.30;13.65;;;3.90;99.90;;;;;;4955511;28;20042;-76
2020/12/17 01:17:49;;;;;;;34.60;12.85;;;4.00;99.90;;;;;;4964422;28;20035;-77
2020/12/17 01:20:15;;;;;;;30.38;11.35;;;4.00;99.90;;;;;;4939873;28;20091;-76
2020/12/17 01:22:40;;;;;;;25.85;10.23;;;4.00;99.90;;;;;;4953227;28;20023;-77
2020/12/17 01:25:06;;;;;;;31.33;11.63;;;4.00;99.90;;;;;;4960232;28;20027;-76
2020/12/17 01:27:32;;;;;;;23.52;10.30;;;4.00;99.90;;;;;;4963818;28;20036;-76
2020/12/17 01:29:58;;;;;;;22.75;8.85;;;3.90;99.90;;;;;;4947208;29;20035;-74
2020/12/17 01:32:24;;;;;;;29.98;10.27;;;3.90;99.90;;;;;;4952308;28;20043;-75
2020/12/17 01:34:50;;;;;;;21.50;8.75;;;3.80;99.90;;;;;;4971324;28;20477;-75
2020/12/17 01:37:16;;;;;;;30.00;10.20;;;3.80;99.90;;;;;;4965712;28;20027;-76
2020/12/17 01:39:42;;;;;;;26.33;9.93;;;3.70;99.90;;;;;;4967870;28;20031;-77
2020/12/17 01:42:08;;;;;;;27.45;10.00;;;3.60;99.90;;;;;;4971229;28;20110;-75
2020/12/17 01:44:39;;;;;;;25.58;8.75;;;3.60;99.90;;;;;;4971485;28;20114;-76
2020/12/17 01:47:05;;;;;;;26.75;9.50;;;3.60;99.90;;;;;;4968983;28;20022;-76
2020/12/17 01:49:31;;;;;;;22.83;9.55;;;3.60;99.90;;;;;;4960297;28;20081;-76
2020/12/17 01:51:57;;;;;;;25.85;9.32;;;3.70;99.90;;;;;;4952503;28;20102;-76
2020/12/17 01:54:23;;;;;;;28.05;10.25;;;3.70;99.90;;;;;;4967445;28;20114;-76
2020/12/17 01:56:59;;;;;;;27.50;9.35;;;3.70;99.90;;;;;;4966740;28;20106;-77
2020/12/17 01:59:27;;;;;;;27.05;9.07;;;3.70;99.90;;;;;;4955642;28;20054;-76
2020/12/17 02:01:54;;;;;;;27.35;9.70;;;3.60;99.90;;;;;;4960544;28;20050;-75
2020/12/17 02:04:23;;;;;;;24.45;9.35;;;3.60;99.90;;;;;;4961581;28;20113;-77
2020/12/17 02:06:50;;;;;;;23.95;9.13;;;3.60;99.90;;;;;;4966326;28;20041;-78
2020/12/17 02:09:17;;;;;;;25.58;9.70;;;3.60;99.90;;;;;;4970863;28;20122;-76
2020/12/17 02:11:58;;;;;;;25.50;9.13;;;3.60;99.90;;;;;;4971363;28;20121;-75
2020/12/17 02:14:25;;;;;;;21.65;8.65;;;3.60;99.90;;;;;;4972469;28;20038;-75
2020/12/17 02:16:51;;;;;;;25.80;9.50;;;3.60;99.90;;;;;;4968960;28;20035;-76
2020/12/17 02:19:17;;;;;;;28.85;9.25;;;3.60;99.90;;;;;;4965887;28;20515;-76
2020/12/17 02:21:43;;;;;;;23.33;9.48;;;3.60;99.90;;;;;;4970292;28;20045;-75
2020/12/17 02:24:09;;;;;;;24.63;9.27;;;3.60;99.90;;;;;;4970382;28;20047;-77
2020/12/17 02:26:35;;;;;;;25.00;9.15;;;3.60;99.90;;;;;;4971846;28;20534;-76
2020/12/17 02:29:01;;;;;;;26.20;9.43;;;3.60;99.90;;;;;;4960235;28;20027;-76
2020/12/17 02:31:28;;;;;;;26.70;9.30;;;3.60;99.90;;;;;;4969658;28;20522;-76
2020/12/17 02:33:54;;;;;;;23.92;9.48;;;3.60;99.90;;;;;;4960126;28;20047;-76
2020/12/17 02:36:20;;;;;;;28.30;10.00;;;3.60;99.90;;;;;;4957928;28;20113;-75
2020/12/17 02:38:47;;;;;;;21.15;8.82;;;3.50;99.90;;;;;;4957497;28;20516;-75
2020/12/17 02:41:13;;;;;;;24.25;8.98;;;3.50;99.90;;;;;;4947602;28;20039;-77
2020/12/17 02:43:42;;;;;;;29.92;9.05;;;3.50;99.90;;;;;;4972283;28;20027;-77
2020/12/17 02:46:08;;;;;;;29.23;9.63;;;3.50;99.90;;;;;;4968030;28;20140;-76
2020/12/17 02:48:34;;;;;;;23.30;8.80;;;3.50;99.90;;;;;;4963082;28;20038;-77
2020/12/17 02:50:59;;;;;;;21.75;9.02;;;3.50;99.90;;;;;;4975279;28;20034;-76
2020/12/17 02:53:25;;;;;;;19.98;8.80;;;3.60;99.90;;;;;;4967837;28;20089;-76
2020/12/17 02:55:52;;;;;;;21.70;8.32;;;3.50;99.90;;;;;;4959792;28;20500;-77
2020/12/17 02:58:19;;;;;;;26.40;9.50;;;3.50;99.90;;;;;;4966203;28;20045;-76
2020/12/17 03:00:44;;;;;;;19.48;7.75;;;3.50;99.90;;;;;;4967706;28;20396;-76
2020/12/17 03:03:10;;;;;;;17.55;7.53;;;3.40;99.90;;;;;;4973004;28;20030;-76
2020/12/17 03:05:36;;;;;;;18.85;7.78;;;3.50;99.90;;;;;;4971978;28;20609;-76
2020/12/17 03:08:02;;;;;;;18.20;7.93;;;3.40;99.90;;;;;;4962003;28;20038;-76
2020/12/17 03:10:28;;;;;;;21.67;7.43;;;3.50;99.90;;;;;;4974129;28;20477;-75
2020/12/17 03:12:54;;;;;;;18.95;7.28;;;3.50;99.90;;;;;;4973006;28;20042;-76
2020/12/17 03:15:19;;;;;;;17.55;7.30;;;3.50;99.90;;;;;;4974047;28;20030;-76
2020/12/17 03:17:45;;;;;;;19.77;7.22;;;3.40;99.90;;;;;;4969488;28;20509;-75
2020/12/17 03:20:11;;;;;;;18.42;7.93;;;3.40;99.90;;;;;;4961175;28;20053;-76
2020/12/17 03:22:38;;;;;;;17.98;6.82;;;3.40;99.90;;;;;;4974590;28;20031;-76
2020/12/17 03:25:07;;;;;;;15.10;6.68;;;3.40;99.90;;;;;;4970864;28;20065;-77
2020/12/17 03:27:32;;;;;;;17.58;6.35;;;3.50;99.90;;;;;;4966747;28;20389;-76
2020/12/17 03:29:59;;;;;;;16.40;6.95;;;3.50;99.90;;;;;;4967368;28;20039;-76
2020/12/17 03:32:25;;;;;;;14.23;5.70;;;3.40;99.90;;;;;;4974132;28;20551;-74
2020/12/17 03:34:51;;;;;;;15.02;6.07;;;3.40;99.90;;;;;;4972743;28;20097;-77
2020/12/17 03:37:17;;;;;;;16.73;6.50;;;3.40;99.90;;;;;;4968206;28;20038;-76
2020/12/17 03:39:43;;;;;;;16.08;5.95;;;3.40;99.90;;;;;;4974351;28;20125;-75
2020/12/17 03:42:09;;;;;;;16.52;6.80;;;3.30;99.90;;;;;;4973552;28;20082;-76
2020/12/17 03:44:34;;;;;;;18.38;6.50;;;3.40;99.90;;;;;;4956081;28;20030;-76
2020/12/17 03:47:00;;;;;;;15.93;6.45;;;3.40;99.90;;;;;;4968915;28;20502;-75
2020/12/17 03:49:26;;;;;;;15.68;5.97;;;3.40;99.90;;;;;;4974619;28;20530;-75
2020/12/17 03:51:51;;;;;;;14.80;6.07;;;3.40;99.90;;;;;;4955768;28;20047;-75
2020/12/17 03:54:17;;;;;;;14.45;5.53;;;3.40;99.90;;;;;;4973542;28;20034;-76
2020/12/17 03:56:43;;;;;;;17.92;7.28;;;3.30;99.90;;;;;;4958558;28;20050;-76
2020/12/17 03:59:09;;;;;;;16.50;6.47;;;3.30;99.90;;;;;;4958276;28;20036;-77
2020/12/17 04:01:35;;;;;;;16.85;6.53;;;3.40;99.90;;;;;;4968014;28;20520;-75
2020/12/17 04:04:00;;;;;;;16.40;6.82;;;3.40;99.90;;;;;;4973182;28;20035;-76
2020/12/17 04:06:26;;;;;;;15.52;6.13;;;3.40;99.90;;;;;;4967356;28;20110;-75
2020/12/17 04:08:52;;;;;;;18.55;6.60;;;3.50;99.90;;;;;;4972365;28;20485;-75
2020/12/17 04:11:17;;;;;;;12.93;6.45;;;3.50;99.90;;;;;;4972157;28;20031;-75
2020/12/17 04:13:43;;;;;;;15.35;6.13;;;3.40;99.90;;;;;;4957185;28;20054;-76
2020/12/17 04:16:09;;;;;;;15.98;6.25;;;3.40;99.90;;;;;;4969480;28;20118;-75
2020/12/17 04:18:34;;;;;;;13.55;5.35;;;3.40;99.90;;;;;;4961192;28;20405;-76
2020/12/17 04:21:01;;;;;;;15.27;6.55;;;3.40;99.90;;;;;;4963908;28;20038;-75
2020/12/17 04:23:27;;;;;;;17.42;6.95;;;3.50;99.90;;;;;;4974522;28;20477;-76
2020/12/17 04:25:53;;;;;;;16.25;6.35;;;3.40;99.90;;;;;;4970619;28;20035;-74
2020/12/17 04:28:18;;;;;;;12.68;6.13;;;3.40;99.90;;;;;;4971883;28;20038;-76
2020/12/17 04:30:44;;;;;;;12.60;6.10;;;3.40;99.90;;;;;;4973793;28;20097;-76
2020/12/17 04:33:10;;;;;;;14.75;6.50;;;3.40;99.90;;;;;;4972661;28;20030;-76
2020/12/17 04:35:36;;;;;;;13.70;5.65;;;3.40;99.90;;;;;;4971752;28;20114;-76
2020/12/17 04:38:01;;;;;;;17.60;7.00;;;3.30;99.90;;;;;;4966611;28;20061;-76
2020/12/17 04:40:27;;;;;;;18.67;6.05;;;3.30;99.90;;;;;;4960549;28;20039;-75
2020/12/17 04:42:53;;;;;;;14.35;7.05;;;3.30;99.90;;;;;;4973011;28;20031;-75
2020/12/17 04:45:19;;;;;;;21.98;7.47;;;3.20;99.90;;;;;;4970534;28;20394;-76
2020/12/17 04:47:46;;;;;;;17.60;6.93;;;3.20;99.90;;;;;;4963055;28;20038;-76
2020/12/17 04:50:14;;;;;;;15.30;5.70;;;3.20;99.90;;;;;;4956209;28;20452;-77
2020/12/17 04:52:42;;;;;;;13.75;6.63;;;3.20;99.90;;;;;;4970385;28;20041;-77
2020/12/17 04:55:09;;;;;;;16.23;6.80;;;3.20;99.90;;;;;;4969926;28;20081;-76
2020/12/17 04:57:40;;;;;;;14.88;5.90;;;3.10;99.90;;;;;;4965107;28;20043;-77
2020/12/17 05:00:06;;;;;;;16.90;6.78;;;3.10;99.90;;;;;;4969103;28;20038;-76
2020/12/17 05:02:35;;;;;;;14.35;6.63;;;3.10;99.90;;;;;;4955298;28;20125;-75
2020/12/17 05:05:01;;;;;;;16.88;6.72;;;3.10;99.90;;;;;;4973216;28;20035;-76
2020/12/17 05:07:27;;;;;;;14.52;6.80;;;3.10;99.90;;;;;;4965607;28;20043;-78
2020/12/17 05:09:52;;;;;;;13.95;6.50;;;3.10;99.90;;;;;;4970693;28;20038;-76
2020/12/17 05:12:19;;;;;;;15.60;7.13;;;3.20;99.90;;;;;;4971971;28;20039;-76
2020/12/17 05:14:45;;;;;;;19.15;7.57;;;3.10;99.90;;;;;;4971866;28;20053;-75
2020/12/17 05:17:11;;;;;;;15.57;7.35;;;3.10;99.90;;;;;;4966585;28;20470;-76
2020/12/17 05:19:37;;;;;;;18.55;8.23;;;3.10;99.90;;;;;;4964888;28;20526;-76
2020/12/17 05:22:05;;;;;;;18.02;7.95;;;3.10;99.90;;;;;;4972245;28;20038;-76
2020/12/17 05:24:31;;;;;;;16.85;7.32;;;3.10;99.90;;;;;;4972052;28;20054;-76
2020/12/17 05:26:58;;;;;;;21.30;7.90;;;3.10;99.90;;;;;;4969369;28;20023;-76
2020/12/17 05:29:24;;;;;;;19.40;7.53;;;3.10;99.90;;;;;;4952923;28;20039;-76
2020/12/17 05:31:51;;;;;;;17.00;7.13;;;3.10;99.90;;;;;;4970003;28;20035;-76
2020/12/17 05:34:17;;;;;;;16.60;6.55;;;3.10;99.90;;;;;;4970836;28;20110;-77
2020/12/17 05:36:44;;;;;;;16.70;7.18;;;3.10;99.90;;;;;;4967501;28;20513;-75
2020/12/17 05:39:20;;;;;;;19.40;8.15;;;3.10;99.90;;;;;;4961108;28;20089;-76
2020/12/17 05:41:54;;;;;;;17.20;6.72;;;3.10;99.90;;;;;;4971571;28;20060;-76
2020/12/17 05:44:27;;;;;;;12.60;6.05;;;3.20;99.90;;;;;;4970695;28;20062;-77
2020/12/17 05:46:54;;;;;;;14.30;6.78;;;3.20;99.90;;;;;;4961115;28;20062;-76
2020/12/17 05:49:27;;;;;;;14.07;5.95;;;3.20;99.90;;;;;;4972828;28;20474;-76
2020/12/17 05:52:14;;;;;;;16.38;6.97;;;3.20;99.90;;;;;;4972919;28;20074;-78
2020/12/17 05:54:42;;;;;;;11.50;5.53;;;3.20;99.90;;;;;;4970852;28;20416;-78
2020/12/17 05:57:17;;;;;;;12.25;5.15;;;3.20;99.90;;;;;;4972495;28;20042;-77
2020/12/17 05:59:57;;;;;;;11.23;5.07;;;3.20;99.90;;;;;;4950287;28;20034;-76
2020/12/17 06:02:30;;;;;;;10.88;5.20;;;3.20;99.90;;;;;;4952851;29;20031;-77
2020/12/17 06:05:13;;;;;;;16.23;6.15;;;3.20;99.90;;;;;;4966675;28;20034;-78
2020/12/17 06:07:48;;;;;;;13.20;5.53;;;3.10;99.90;;;;;;4967877;28;20031;-78
2020/12/17 06:10:22;;;;;;;10.85;5.72;;;3.20;99.90;;;;;;4956475;28;20146;-78
2020/12/17 06:12:56;;;;;;;11.73;5.35;;;3.20;99.90;;;;;;4972185;28;20390;-78
2020/12/17 06:15:24;;;;;;;11.25;5.25;;;3.20;99.90;;;;;;4968847;28;20050;-78
2020/12/17 06:17:58;;;;;;;10.57;4.63;;;3.20;99.90;;;;;;4960864;28;20074;-77
2020/12/17 06:20:27;;;;;;;10.52;4.72;;;3.20;99.90;;;;;;4951332;28;20069;-77
2020/12/17 06:23:02;;;;;;;11.48;5.35;;;3.20;99.90;;;;;;4973724;28;20043;-76
2020/12/17 06:25:31;;;;;;;11.10;5.27;;;3.20;99.90;;;;;;4971385;28;20103;-77
2020/12/17 06:27:58;;;;;;;12.48;5.47;;;3.20;99.90;;;;;;4977135;23;20473;-74
2020/12/17 06:30:29;;;;;;;10.80;5.30;;;3.20;99.90;;;;;;4970316;28;20161;-74
2020/12/17 06:32:57;;;;;;;9.73;5.25;;;3.20;99.90;;;;;;4965760;28;20031;-73
2020/12/17 06:35:23;;;;;;;11.73;5.60;;;3.20;99.90;;;;;;4965880;28;20069;-73
2020/12/17 06:37:51;;;;;;;10.98;5.40;;;3.20;99.90;;;;;;4970534;28;20473;-74
2020/12/17 06:40:29;;;;;;;7.68;4.15;;;3.20;99.90;;;;;;4970172;28;20058;-73
2020/12/17 06:42:56;;;;;;;10.13;5.07;;;3.20;99.90;;;;;;4963607;28;20039;-73
2020/12/17 06:45:32;;;;;;;10.90;5.28;;;3.20;99.90;;;;;;4964311;28;20046;-74
2020/12/17 06:47:58;;;;;;;11.10;5.72;;;3.20;99.90;;;;;;4969047;28;20067;-73
2020/12/17 06:50:25;;;;;;;10.98;5.50;;;3.20;99.90;;;;;;4966797;28;20063;-73
2020/12/17 06:53:07;;;;;;;12.63;5.30;;;3.20;99.90;;;;;;4968843;28;20041;-73
2020/12/17 06:55:57;;;;;;;15.05;6.22;;;3.20;99.90;;;;;;4970950;28;20133;-73
2020/12/17 06:58:24;;;;;;;11.07;5.35;;;3.20;99.90;;;;;;4969149;28;20038;-73
2020/12/17 07:00:52;;;;;;;11.45;5.40;;;3.20;99.90;;;;;;4970561;28;20086;-73
2020/12/17 07:03:44;;;;;;;12.25;5.50;;;3.20;99.90;;;;;;4953935;28;20043;-72
2020/12/17 07:06:13;;;;;;;12.60;5.72;;;3.20;99.90;;;;;;4972158;28;20038;-73
2020/12/17 07:08:39;;;;;;;12.00;5.82;;;3.20;99.90;;;;;;4970254;28;20107;-73
2020/12/17 07:11:05;;;;;;;12.55;5.75;;;3.20;99.90;;;;;;4965151;28;20031;-73
2020/12/17 07:13:41;;;;;;;10.40;5.10;;;3.10;99.90;;;;;;4970821;28;20110;-74
2020/12/17 07:16:19;;;;;;;9.90;5.57;;;3.20;99.90;;;;;;4971973;28;20382;-73
2020/12/17 07:18:45;;;;;;;12.50;6.60;;;3.20;99.90;;;;;;4967698;28;20126;-73
2020/12/17 07:21:11;;;;;;;12.93;5.38;;;3.20;99.90;;;;;;4968891;28;20608;-73
2020/12/17 07:23:39;;;;;;;13.70;6.15;;;3.20;99.90;;;;;;4971852;28;20058;-73
2020/12/17 07:26:15;;;;;;;11.15;5.90;;;3.20;99.90;;;;;;4971288;28;20046;-73
2020/12/17 07:28:41;;;;;;;12.73;6.07;;;3.20;99.90;;;;;;4970044;28;20039;-73
2020/12/17 07:31:07;;;;;;;13.07;6.50;;;3.20;99.90;;;;;;4967211;28;20086;-73
2020/12/17 07:33:36;;;;;;;14.88;5.97;;;3.10;99.90;;;;;;4974621;28;20507;-73
2020/12/17 07:36:02;;;;;;;15.95;7.15;;;3.10;99.90;;;;;;4975359;28;20583;-73
2020/12/17 07:38:29;;;;;;;13.48;6.70;;;3.10;99.90;;;;;;4971962;28;20114;-73
2020/12/17 07:40:54;;;;;;;13.85;6.53;;;3.00;99.90;;;;;;4973752;28;20041;-74
2020/12/17 07:43:20;;;;;;;12.68;7.22;;;3.00;99.90;;;;;;4973894;28;20380;-73
2020/12/17 07:45:46;;;;;;;13.93;6.55;;;3.00;99.90;;;;;;4973783;28;20035;-73
2020/12/17 07:48:33;;;;;;;13.63;6.43;;;3.00;99.90;;;;;;4973294;28;20034;-73
2020/12/17 07:51:06;;;;;;;13.35;7.28;;;3.10;99.90;;;;;;4967790;28;20485;-74
2020/12/17 07:53:33;;;;;;;13.60;5.85;;;3.10;99.90;;;;;;4973274;28;20039;-74
2020/12/17 07:55:59;;;;;;;14.15;6.57;;;3.10;99.90;;;;;;4974601;28;20034;-73
2020/12/17 07:58:25;;;;;;;17.60;7.63;;;3.10;99.90;;;;;;4970947;28;20062;-73
2020/12/17 08:00:55;;;;;;;15.60;7.55;;;3.10;99.90;;;;;;4972559;28;20682;-75
2020/12/17 08:03:22;;;;;;;15.57;7.07;;;3.10;99.90;;;;;;4969667;28;20027;-75
2020/12/17 08:05:48;;;;;;;12.75;6.90;;;3.10;99.90;;;;;;4971808;28;20757;-72
2020/12/17 08:08:16;;;;;;;14.48;6.78;;;3.00;99.90;;;;;;4970929;28;20035;-72
2020/12/17 08:10:42;;;;;;;15.40;7.50;;;3.00;99.90;;;;;;4969692;28;20030;-73
2020/12/17 08:13:08;;;;;;;15.18;6.70;;;2.90;99.90;;;;;;4970913;28;20501;-73
2020/12/17 08:15:34;;;;;;;14.70;7.13;;;2.90;99.90;;;;;;4974002;28;20070;-74
2020/12/17 08:18:01;;;;;;;14.73;7.40;;;2.80;99.90;;;;;;4965965;28;20031;-72
2020/12/17 08:20:31;;;;;;;17.35;7.65;;;2.80;99.90;;;;;;4950164;28;20038;-73
2020/12/17 08:22:57;;;;;;;18.08;8.15;;;2.80;99.90;;;;;;4971879;28;20035;-72
2020/12/17 08:25:24;;;;;;;22.27;8.13;;;2.80;99.90;;;;;;4969954;28;20373;-72
2020/12/17 08:27:53;;;;;;;20.10;7.30;;;2.80;99.90;;;;;;4972649;28;20105;-73
2020/12/17 08:30:23;;;;;;;18.73;8.23;;;2.80;99.90;;;;;;4967745;28;20027;-73
2020/12/17 08:32:51;;;;;;;18.13;7.82;;;2.70;99.90;;;;;;4964524;28;20034;-73
2020/12/17 08:35:22;;;;;;;16.15;6.93;;;2.70;99.90;;;;;;4965313;28;20051;-74
2020/12/17 08:37:55;;;;;;;15.63;7.15;;;2.60;99.90;;;;;;4961968;28;20066;-72
2020/12/17 08:40:26;;;;;;;21.73;8.05;;;2.50;99.90;;;;;;4968914;28;20030;-75
2020/12/17 08:43:00;;;;;;;19.27;8.48;;;2.50;99.90;;;;;;4954696;28;20038;-75
2020/12/17 08:45:27;;;;;;;19.33;7.93;;;2.40;99.90;;;;;;4957121;28;20042;-75
2020/12/17 08:47:58;;;;;;;18.60;8.20;;;2.50;99.90;;;;;;4973175;28;20478;-74
2020/12/17 08:50:26;;;;;;;20.48;8.13;;;2.50;99.90;;;;;;4969315;28;20046;-73
2020/12/17 08:52:55;;;;;;;22.10;8.57;;;2.50;99.90;;;;;;4970175;28;20118;-75
2020/12/17 08:55:23;;;;;;;17.10;8.98;;;2.50;99.90;;;;;;4972060;28;20046;-74
2020/12/17 08:57:49;;;;;;;19.48;8.35;;;2.50;99.90;;;;;;4968225;28;20046;-74
2020/12/17 09:00:20;;;;;;;22.08;9.50;;;2.50;99.90;;;;;;4972502;28;20034;-73
2020/12/17 09:02:46;;;;;;;22.42;8.23;;;2.50;99.90;;;;;;4971138;28;20031;-74
2020/12/17 09:05:13;;;;;;;25.98;9.73;;;2.50;99.90;;;;;;4972902;28;20425;-75
2020/12/17 09:07:46;;;;;;;22.83;9.43;;;2.60;99.90;;;;;;4973231;28;20397;-74
2020/12/17 09:10:16;;;;;;;19.42;8.32;;;2.50;99.90;;;;;;4968303;28;20077;-74
2020/12/17 09:12:43;;;;;;;20.38;9.10;;;2.60;99.90;;;;;;4970133;28;20367;-74
2020/12/17 09:15:11;;;;;;;19.73;7.43;;;2.50;99.90;;;;;;4973271;28;20122;-74
2020/12/17 09:17:38;;;;;;;20.73;8.40;;;2.60;99.90;;;;;;4970952;28;20035;-74
2020/12/17 09:20:15;;;;;;;20.75;8.68;;;2.60;99.90;;;;;;4971160;28;20038;-74
2020/12/17 09:22:41;;;;;;;19.38;8.82;;;2.70;99.90;;;;;;4958280;28;20034;-74
2020/12/17 09:25:06;;;;;;;21.63;8.73;;;2.70;99.90;;;;;;4961981;28;20050;-75
2020/12/17 09:27:36;;;;;;;21.30;8.48;;;2.70;99.90;;;;;;4953799;28;20509;-74
2020/12/17 09:30:08;;;;;;;17.15;8.10;;;2.80;99.90;;;;;;4961059;28;20051;-74
2020/12/17 09:33:02;;;;;;;19.88;9.10;;;2.80;99.90;;;;;;4964408;28;20067;-74
2020/12/17 09:35:33;;;;;;;17.65;8.02;;;2.70;99.90;;;;;;4955745;28;20434;-75
2020/12/17 09:38:04;;;;;;;20.33;8.48;;;2.70;99.90;;;;;;4966183;28;20034;-75
2020/12/17 09:40:32;;;;;;;21.85;8.85;;;2.70;99.90;;;;;;4972428;28;20031;-75
2020/12/17 09:43:07;;;;;;;16.98;8.00;;;2.80;99.90;;;;;;4965690;28;20039;-74
2020/12/17 09:45:37;;;;;;;16.80;7.68;;;2.80;99.90;;;;;;4965168;28;20031;-75
2020/12/17 09:48:29;;;;;;;21.70;8.02;;;2.80;99.90;;;;;;4953372;28;20031;-76
2020/12/17 09:51:06;;;;;;;18.55;7.43;;;2.70;99.90;;;;;;4961787;28;20046;-75
2020/12/17 09:53:35;;;;;;;17.10;7.57;;;2.70;99.90;;;;;;4966263;28;20402;-75
2020/12/17 09:56:01;;;;;;;15.63;7.53;;;2.70;99.90;;;;;;4960133;28;20051;-75
2020/12/17 09:58:27;;;;;;;18.52;8.10;;;2.80;99.90;;;;;;4965604;28;20087;-76
2020/12/17 10:00:53;;;;;;;15.77;7.72;;;2.80;99.90;;;;;;4965483;28;20393;-75
2020/12/17 10:03:19;;;;;;;17.10;8.13;;;2.80;99.90;;;;;;4958994;28;20136;-75
2020/12/17 10:05:44;;;;;;;19.73;8.93;;;2.80;99.90;;;;;;4956839;28;20035;-74
2020/12/17 10:08:10;;;;;;;18.10;8.20;;;2.80;99.90;;;;;;4968206;28;20385;-73
2020/12/17 10:10:37;;;;;;;16.90;7.93;;;2.90;99.90;;;;;;4969881;28;20113;-75
2020/12/17 10:13:04;;;;;;;16.55;7.97;;;2.90;99.90;;;;;;4970836;28;20039;-75
2020/12/17 10:15:30;;;;;;;15.95;7.50;;;2.90;99.90;;;;;;4972282;28;20050;-75
2020/12/17 10:17:56;;;;;;;18.52;8.55;;;2.90;99.90;;;;;;4969520;28;20041;-75
2020/12/17 10:20:23;;;;;;;15.10;7.68;;;2.90;99.90;;;;;;4952896;28;20524;-75
2020/12/17 10:22:49;;;;;;;16.55;8.35;;;2.90;99.90;;;;;;4954927;28;20114;-74
2020/12/17 10:25:17;;;;;;;18.85;7.38;;;2.80;99.90;;;;;;4956831;28;20034;-73
2020/12/17 10:27:44;;;;;;;18.25;8.80;;;2.90;99.90;;;;;;4964533;28;20456;-74
2020/12/17 10:30:10;;;;;;;18.20;8.00;;;2.90;99.90;;;;;;4968119;28;20054;-74
2020/12/17 10:32:41;;;;;;;18.60;7.72;;;2.90;99.90;;;;;;4964053;28;20043;-74
2020/12/17 10:35:07;;;;;;;18.25;7.60;;;3.00;99.90;;;;;;4970964;28;20114;-74
2020/12/17 10:37:33;;;;;;;17.50;8.32;;;3.00;99.90;;;;;;4969486;28;20058;-74
2020/12/17 10:39:58;;;;;;;15.65;7.07;;;3.00;99.90;;;;;;4969040;28;20505;-75
2020/12/17 10:42:24;;;;;;;15.45;7.60;;;3.10;99.90;;;;;;4970808;28;20102;-75
2020/12/17 10:44:50;;;;;;;18.85;8.18;;;3.10;99.90;;;;;;4964847;28;20481;-74
2020/12/17 10:47:18;;;;;;;16.00;7.82;;;3.10;99.90;;;;;;4959097;28;20028;-75
2020/12/17 10:49:44;;;;;;;17.15;8.27;;;3.20;99.90;;;;;;4961634;28;20446;-74
2020/12/17 10:52:10;;;;;;;15.30;7.28;;;3.20;99.90;;;;;;4967202;28;20501;-75
2020/12/17 10:54:36;;;;;;;17.75;7.78;;;3.20;99.90;;;;;;4970215;28;20043;-74
2020/12/17 10:57:02;;;;;;;16.20;7.32;;;3.20;99.90;;;;;;4968907;28;20027;-73
2020/12/17 10:59:28;;;;;;;18.23;8.57;;;3.30;99.90;;;;;;4959704;28;20058;-74
2020/12/17 11:01:57;;;;;;;13.02;7.00;;;3.30;99.90;;;;;;4963699;28;20134;-73
2020/12/17 11:04:24;;;;;;;16.20;7.13;;;3.20;99.90;;;;;;4950437;28;20737;-75
2020/12/17 11:06:49;;;;;;;17.02;7.47;;;3.20;99.90;;;;;;4963501;28;20085;-72
2020/12/17 11:09:15;;;;;;;14.23;7.50;;;3.20;99.90;;;;;;4966424;28;20026;-72
2020/12/17 11:11:41;;;;;;;15.13;6.80;;;3.20;99.90;;;;;;4966202;28;20481;-74
2020/12/17 11:14:07;;;;;;;16.08;7.32;;;3.20;99.90;;;;;;4970666;28;20039;-73
2020/12/17 11:16:32;;;;;;;15.43;7.22;;;3.20;99.90;;;;;;4971733;28;20368;-73
2020/12/17 11:19:00;;;;;;;14.98;6.82;;;3.20;99.90;;;;;;4964927;28;20034;-73
2020/12/17 11:21:26;;;;;;;15.23;7.22;;;3.10;99.90;;;;;;4967799;28;20043;-74
2020/12/17 11:23:52;;;;;;;14.13;7.38;;;3.10;99.90;;;;;;4971795;28;20031;-73
2020/12/17 11:26:18;;;;;;;15.60;6.97;;;3.20;99.90;;;;;;4968210;28;20027;-74
2020/12/17 11:28:43;;;;;;;13.43;6.20;;;3.20;99.90;;;;;;4964090;28;20039;-75
2020/12/17 11:31:09;;;;;;;16.27;7.22;;;3.20;99.90;;;;;;4964771;28;20054;-74
2020/12/17 11:33:35;;;;;;;13.98;7.28;;;3.20;99.90;;;;;;4970085;28;20031;-73
2020/12/17 11:36:04;;;;;;;14.35;7.13;;;3.20;99.90;;;;;;4966635;28;20041;-74
2020/12/17 11:38:30;;;;;;;14.75;6.75;;;3.20;99.90;;;;;;4963027;28;20077;-73
2020/12/17 11:40:55;;;;;;;15.13;7.32;;;3.20;99.90;;;;;;4964160;28;20034;-73
2020/12/17 11:43:21;;;;;;;12.75;6.30;;;3.10;99.90;;;;;;4969004;28;20030;-73
2020/12/17 11:45:47;;;;;;;13.20;6.90;;;3.10;99.90;;;;;;4952951;28;20180;-75
2020/12/17 11:48:12;;;;;;;14.18;7.60;;;3.10;99.90;;;;;;4965427;28;20039;-74
2020/12/17 11:50:38;;;;;;;14.02;6.80;;;3.10;99.90;;;;;;4960066;28;20038;-73
2020/12/17 11:53:04;;;;;;;13.80;6.50;;;3.10;99.90;;;;;;4962055;28;20027;-74
2020/12/17 11:55:30;;;;;;;13.20;6.88;;;3.10;99.90;;;;;;4963180;28;20053;-74
2020/12/17 11:57:56;;;;;;;15.23;7.50;;;3.10;99.90;;;;;;4957004;28;20054;-73
2020/12/17 12:00:21;;;;;;;14.95;7.05;;;3.10;99.90;;;;;;4961845;28;20035;-73
2020/12/17 12:02:50;;;;;;;9.88;5.65;;;3.10;99.90;;;;;;4964122;28;20047;-74
2020/12/17 12:05:17;;;;;;;14.73;7.10;;;3.10;99.90;;;;;;4952770;28;20042;-72
2020/12/17 12:07:44;;;;;;;13.18;6.25;;;3.00;99.90;;;;;;4966302;28;20031;-73
2020/12/17 12:10:10;;;;;;;15.93;7.05;;;3.10;99.90;;;;;;4962817;28;20045;-74
2020/12/17 12:12:36;;;;;;;13.15;6.88;;;3.20;99.90;;;;;;4966108;28;20026;-73
2020/12/17 12:15:02;;;;;;;16.27;7.07;;;3.30;99.90;;;;;;4969705;28;20027;-73
2020/12/17 12:17:28;;;;;;;14.18;6.85;;;3.40;99.90;;;;;;4962820;28;20069;-73
2020/12/17 12:19:54;;;;;;;15.50;7.07;;;3.40;99.90;;;;;;4968453;28;20082;-73
2020/12/17 12:22:19;;;;;;;13.85;6.65;;;3.40;99.90;;;;;;4968245;28;20039;-73
2020/12/17 12:24:45;;;;;;;14.15;7.50;;;3.40;99.90;;;;;;4969618;28;20027;-73
2020/12/17 12:27:11;;;;;;;15.82;7.25;;;3.50;99.90;;;;;;4986160;23;20536;-73
2020/12/17 12:29:37;;;;;;;15.50;6.85;;;3.40;99.90;;;;;;4986819;28;20029;-73
2020/12/17 12:32:02;;;;;;;11.50;6.70;;;3.50;99.90;;;;;;4981572;28;20125;-73
2020/12/17 12:34:29;;;;;;;17.75;8.45;;;3.50;99.90;;;;;;4991463;28;20031;-73
2020/12/17 12:36:56;;;;;;;11.40;6.35;;;3.50;99.90;;;;;;4984109;28;20038;-74
2020/12/17 12:39:22;;;;;;;10.00;5.75;;;3.50;99.90;;;;;;4951377;28;20043;-73
2020/12/17 12:41:49;;;;;;;13.32;6.55;;;3.50;99.90;;;;;;4967339;28;20061;-73
2020/12/17 12:44:15;;;;;;;15.52;7.53;;;3.50;99.90;;;;;;4981103;28;20034;-73
2020/12/17 12:46:41;;;;;;;12.65;6.72;;;3.50;99.90;;;;;;4980064;28;20035;-73
2020/12/17 12:49:08;;;;;;;11.80;5.82;;;3.60;99.90;;;;;;4976591;28;20023;-73